Time;durP1;ratioP1;P1;durP2;ratioP2;P2;SDS_P1;SDS_P2;PMS_P1;PMS_P2;Temp;Humidity;BMP_temperature;BMP_pressure;BME280_temperature;BME280_humidity;BME280_pressure;Samples;Min_cycle;Max_cycle;Signal;HPM_P1;HPM_P2
2022/02/11 00:08:28;;;;;;;10.00;4.47;;;2.60;99.90;;;;;;5016574;28;20044;-58
2022/02/11 00:10:53;;;;;;;8.85;4.32;;;2.70;99.90;;;;;;5020604;28;20041;-58
2022/02/11 00:13:22;;;;;;;11.23;5.68;;;2.70;99.90;;;;;;5016289;28;20480;-58
2022/02/11 00:15:49;;;;;;;10.05;6.20;;;2.70;99.90;;;;;;5017763;28;20028;-58
2022/02/11 00:18:16;;;;;;;13.00;6.35;;;2.70;99.90;;;;;;5021564;28;20028;-59
2022/02/11 00:20:51;;;;;;;13.80;6.38;;;2.70;99.90;;;;;;5018989;28;20151;-57
2022/02/11 00:23:18;;;;;;;15.48;5.50;;;2.70;99.90;;;;;;5011905;28;20037;-60
2022/02/11 00:25:54;;;;;;;9.82;6.15;;;2.70;99.90;;;;;;5012405;28;20042;-59
2022/02/11 00:33:53;;;;;;;11.80;7.75;;;2.60;99.90;;;;;;5030784;28;20467;-60
2022/02/11 00:36:23;;;;;;;15.57;8.68;;;2.70;99.90;;;;;;5022506;28;20578;-59
2022/02/11 00:45:12;;;;;;;18.40;11.65;;;2.70;99.90;;;;;;5015910;28;20029;-60
2022/02/11 00:53:31;;;;;;;17.85;10.30;;;2.70;99.90;;;;;;5012026;28;20080;-60
2022/02/11 01:03:10;;;;;;;11.60;7.68;;;2.70;99.90;;;;;;5023609;28;20091;-60
2022/02/11 01:05:36;;;;;;;11.40;7.20;;;2.70;99.90;;;;;;5018387;28;20030;-57
2022/02/11 01:08:02;;;;;;;16.75;7.97;;;2.70;99.90;;;;;;5021087;28;20034;-58
2022/02/11 01:10:28;;;;;;;11.68;7.10;;;2.70;99.90;;;;;;5016111;28;20025;-60
2022/02/11 01:12:54;;;;;;;13.45;7.47;;;2.70;99.90;;;;;;5022107;28;20500;-59
2022/02/11 01:15:20;;;;;;;11.88;7.63;;;2.70;99.90;;;;;;5013040;28;20025;-60
2022/02/11 01:17:51;;;;;;;16.63;7.13;;;2.80;99.90;;;;;;5016550;28;20030;-59
2022/02/11 01:20:29;;;;;;;16.13;8.50;;;2.70;99.90;;;;;;5025508;28;20051;-59
2022/02/11 01:30:48;;;;;;;14.48;7.88;;;2.80;99.90;;;;;;5022873;28;20030;-60
2022/02/11 01:38:31;;;;;;;17.15;8.82;;;2.80;99.90;;;;;;5027484;28;20026;-59
2022/02/11 01:46:46;;;;;;;17.98;8.52;;;2.80;99.90;;;;;;5014392;28;20112;-59
2022/02/11 01:56:59;;;;;;;14.18;8.88;;;2.90;99.90;;;;;;5013739;28;20022;-60
2022/02/11 02:25:01;;;;;;;17.95;10.27;;;2.70;99.90;;;;;;5013402;28;20112;-58
2022/02/11 02:28:36;;;;;;;22.42;10.65;;;2.60;99.90;;;;;;5020092;28;20041;-59
2022/02/11 02:31:36;;;;;;;20.27;10.90;;;2.60;99.90;;;;;;5018574;28;20084;-59
2022/02/11 02:33:43;;;;;;;28.17;12.18;;;2.40;99.90;;;;;;5017049;28;20053;-59
2022/02/11 02:57:57;;;;;;;26.85;14.63;;;1.70;99.90;;;;;;5020353;28;20100;-59
2022/02/11 03:00:56;;;;;;;27.00;13.35;;;1.60;99.90;;;;;;5027507;28;20033;-58
2022/02/11 03:50:04;;;;;;;50.67;19.90;;;1.30;99.90;;;;;;5023884;28;20049;-60
2022/02/11 04:23:05;;;;;;;51.13;20.30;;;1.40;99.90;;;;;;5013119;28;20112;-60
2022/02/11 04:55:04;;;;;;;53.42;18.98;;;1.90;99.90;;;;;;5023216;28;20175;-60
2022/02/11 05:00:15;;;;;;;42.58;16.90;;;2.00;99.90;;;;;;5017259;28;20048;-60
2022/02/11 05:02:42;;;;;;;43.13;16.55;;;2.10;99.90;;;;;;5019703;28;20025;-58
2022/02/11 05:05:09;;;;;;;45.42;17.60;;;2.20;99.90;;;;;;5019908;28;20100;-60
2022/02/11 05:07:36;;;;;;;40.65;16.88;;;2.20;99.90;;;;;;5018807;28;20345;-60
2022/02/11 05:10:02;;;;;;;39.03;15.18;;;2.30;99.90;;;;;;5022314;28;20029;-58
2022/02/11 05:12:28;;;;;;;36.42;16.38;;;2.30;99.90;;;;;;5016482;28;20044;-58
2022/02/11 05:14:53;;;;;;;33.08;16.00;;;2.30;99.90;;;;;;5018463;28;20033;-58
2022/02/11 05:17:19;;;;;;;43.97;15.25;;;2.30;99.90;;;;;;5018211;28;20044;-59
2022/02/11 05:19:44;;;;;;;40.30;14.45;;;2.40;99.90;;;;;;5017620;28;20033;-60
2022/02/11 05:22:10;;;;;;;33.22;13.15;;;2.40;99.90;;;;;;5016596;28;20038;-59
2022/02/11 05:24:36;;;;;;;36.20;13.85;;;2.50;99.90;;;;;;5014143;28;20036;-53
2022/02/11 05:27:01;;;;;;;36.25;10.93;;;2.50;99.90;;;;;;5024848;28;20057;-60
2022/02/11 05:29:27;;;;;;;42.88;15.23;;;2.50;99.90;;;;;;5017800;28;20100;-59
2022/02/11 05:31:52;;;;;;;30.95;13.48;;;2.50;99.90;;;;;;5020476;28;20033;-58
2022/02/11 05:34:18;;;;;;;33.88;13.43;;;2.60;99.90;;;;;;5020136;28;20056;-59
2022/02/11 05:36:43;;;;;;;30.05;13.90;;;2.60;99.90;;;;;;5017058;28;20044;-59
2022/02/11 05:39:10;;;;;;;33.70;11.88;;;2.60;99.90;;;;;;5027361;28;20454;-58
2022/02/11 05:41:35;;;;;;;36.20;15.43;;;2.60;99.90;;;;;;5021027;28;20021;-57
2022/02/11 05:44:01;;;;;;;33.20;12.63;;;2.70;99.90;;;;;;5020336;28;20116;-57
2022/02/11 05:46:29;;;;;;;35.53;12.15;;;2.70;99.90;;;;;;5012270;28;20053;-59
2022/02/11 05:48:55;;;;;;;38.40;13.45;;;2.70;99.90;;;;;;5023157;28;20414;-55
2022/02/11 05:51:20;;;;;;;34.45;13.45;;;2.70;99.90;;;;;;5022348;28;20564;-59
2022/02/11 05:53:46;;;;;;;35.33;13.10;;;2.70;99.90;;;;;;5021839;28;20033;-59
2022/02/11 05:56:12;;;;;;;39.63;13.15;;;2.80;99.90;;;;;;5020702;28;20030;-60
2022/02/11 05:58:38;;;;;;;36.58;13.20;;;2.80;99.90;;;;;;5011531;28;20092;-58
2022/02/11 06:01:05;;;;;;;31.55;14.43;;;2.80;99.90;;;;;;5015273;28;20104;-59
2022/02/11 06:03:31;;;;;;;36.65;12.98;;;2.80;99.90;;;;;;5009489;28;20112;-60
2022/02/11 06:05:56;;;;;;;29.92;12.30;;;2.80;99.90;;;;;;5018146;28;20519;-60
2022/02/11 06:08:22;;;;;;;29.08;11.80;;;2.90;99.90;;;;;;5017283;28;20087;-59
2022/02/11 06:10:48;;;;;;;33.97;11.55;;;2.90;99.90;;;;;;5018266;28;20030;-58
2022/02/11 06:13:14;;;;;;;42.08;16.50;;;2.90;99.90;;;;;;5020392;28;20032;-60
2022/02/11 06:15:41;;;;;;;34.55;10.15;;;2.90;99.90;;;;;;5016017;28;20133;-58
2022/02/11 06:18:07;;;;;;;27.15;10.05;;;2.90;99.90;;;;;;5025987;28;20108;-59
2022/02/11 06:20:33;;;;;;;39.20;10.02;;;2.90;99.90;;;;;;5021213;28;20030;-59
2022/02/11 06:22:58;;;;;;;29.45;9.32;;;3.00;99.90;;;;;;5020724;28;20108;-59
2022/02/11 06:25:24;;;;;;;35.45;11.05;;;3.00;99.90;;;;;;5022745;28;20041;-60
2022/02/11 06:27:50;;;;;;;31.90;10.23;;;3.00;99.90;;;;;;5020487;28;20112;-57
2022/02/11 06:30:15;;;;;;;33.22;10.35;;;3.00;99.90;;;;;;5018307;28;20026;-58
2022/02/11 06:32:41;;;;;;;28.25;8.90;;;3.00;99.90;;;;;;5016502;28;20033;-58
2022/02/11 06:35:08;;;;;;;30.88;9.15;;;3.10;99.90;;;;;;5016709;28;20033;-60
2022/02/11 06:37:34;;;;;;;27.58;10.02;;;3.10;99.90;;;;;;5017546;28;20021;-59
2022/02/11 06:39:59;;;;;;;29.27;10.05;;;3.10;99.90;;;;;;5021436;28;20029;-58
2022/02/11 06:42:25;;;;;;;26.45;10.13;;;3.10;99.90;;;;;;5021056;28;20088;-57
2022/02/11 06:44:51;;;;;;;25.52;9.27;;;3.10;99.90;;;;;;5023191;28;20036;-59
2022/02/11 06:47:17;;;;;;;28.45;10.65;;;3.10;99.90;;;;;;5023708;28;20033;-58
2022/02/11 06:49:43;;;;;;;26.38;9.38;;;3.10;99.90;;;;;;5026602;28;20033;-60
2022/02/11 06:52:09;;;;;;;32.35;9.50;;;3.20;99.90;;;;;;5021392;28;20044;-58
2022/02/11 06:54:35;;;;;;;24.83;7.85;;;3.20;99.90;;;;;;5024480;28;20394;-58
2022/02/11 06:57:01;;;;;;;21.40;8.90;;;3.20;99.90;;;;;;5023674;28;20029;-60
2022/02/11 06:59:26;;;;;;;28.58;9.93;;;3.20;99.90;;;;;;5022720;28;20087;-60
2022/02/11 07:01:52;;;;;;;38.40;10.73;;;3.20;99.90;;;;;;5020822;28;20022;-58
2022/02/11 07:04:17;;;;;;;25.42;9.45;;;3.20;99.90;;;;;;5022827;28;20096;-60
2022/02/11 07:06:43;;;;;;;24.88;8.68;;;3.20;99.90;;;;;;5017333;28;20026;-57
2022/02/11 07:09:09;;;;;;;24.38;10.25;;;3.20;99.90;;;;;;5023694;28;20081;-59
2022/02/11 07:11:35;;;;;;;23.55;7.80;;;3.20;99.90;;;;;;5020428;28;20033;-59
2022/02/11 07:14:00;;;;;;;25.00;8.98;;;3.30;99.90;;;;;;5020299;28;20035;-59
2022/02/11 07:16:26;;;;;;;31.27;8.05;;;3.30;99.90;;;;;;5019464;28;20026;-58
2022/02/11 07:18:51;;;;;;;26.33;8.02;;;3.30;99.90;;;;;;5018084;28;20030;-60
2022/02/11 07:21:17;;;;;;;32.25;8.85;;;3.30;99.90;;;;;;5023470;28;20021;-60
2022/02/11 07:23:42;;;;;;;21.88;8.70;;;3.40;99.90;;;;;;5018817;28;20030;-59
2022/02/11 07:26:08;;;;;;;24.98;8.15;;;3.30;99.90;;;;;;5021691;28;20478;-59
2022/02/11 07:28:34;;;;;;;24.33;8.05;;;3.30;99.90;;;;;;5023386;28;20041;-59
2022/02/11 07:31:01;;;;;;;24.15;7.57;;;3.40;99.90;;;;;;5021830;28;20030;-60
2022/02/11 07:33:26;;;;;;;19.95;7.38;;;3.40;99.90;;;;;;5016825;28;20018;-60
2022/02/11 07:35:52;;;;;;;17.05;5.97;;;3.40;99.90;;;;;;5020055;28;20045;-58
2022/02/11 07:38:17;;;;;;;21.85;6.45;;;3.40;99.90;;;;;;5025876;28;20029;-59
2022/02/11 07:40:43;;;;;;;17.90;6.03;;;3.50;99.90;;;;;;5020571;28;20115;-60
2022/02/11 07:43:08;;;;;;;21.70;6.25;;;3.50;99.90;;;;;;5025247;28;20797;-59
2022/02/11 07:45:36;;;;;;;24.02;6.10;;;3.50;99.90;;;;;;5027499;28;20056;-60
2022/02/11 07:48:03;;;;;;;28.30;6.00;;;3.50;99.90;;;;;;5021727;28;20180;-57
2022/02/11 07:50:30;;;;;;;23.05;7.88;;;3.60;99.90;;;;;;5017881;28;20486;-60
2022/02/11 07:52:56;;;;;;;24.42;6.40;;;3.60;99.90;;;;;;5021319;28;20021;-59
2022/02/11 07:55:22;;;;;;;19.92;5.45;;;3.60;99.90;;;;;;5020556;28;20037;-60
2022/02/11 07:57:47;;;;;;;13.77;5.05;;;3.70;99.90;;;;;;5023516;28;20501;-59
2022/02/11 08:00:14;;;;;;;29.30;5.63;;;3.70;99.90;;;;;;4995283;28;20100;-59
2022/02/11 08:02:40;;;;;;;22.33;5.05;;;3.70;99.90;;;;;;5017871;28;20033;-58
2022/02/11 08:05:07;;;;;;;31.75;6.63;;;3.80;99.90;;;;;;5020024;28;20025;-59
2022/02/11 08:07:32;;;;;;;24.10;6.15;;;3.80;99.90;;;;;;5021103;28;20484;-60
2022/02/11 08:09:58;;;;;;;20.42;3.58;;;3.90;99.90;;;;;;5018257;28;20105;-60
2022/02/11 08:12:23;;;;;;;18.05;3.90;;;3.80;99.90;;;;;;5021815;28;20114;-59
2022/02/11 08:14:50;;;;;;;19.25;5.40;;;3.90;99.90;;;;;;5022014;28;20025;-60
2022/02/11 08:17:16;;;;;;;25.65;4.07;;;3.90;99.90;;;;;;5024025;28;20026;-58
2022/02/11 08:19:41;;;;;;;27.00;4.30;;;3.90;99.90;;;;;;5019811;28;20040;-59
2022/02/11 08:22:07;;;;;;;20.38;3.47;;;3.90;99.90;;;;;;5020772;28;20097;-59
2022/02/11 08:24:32;;;;;;;20.85;4.18;;;4.00;99.90;;;;;;5018911;28;20151;-58
2022/02/11 08:26:58;;;;;;;16.95;3.97;;;4.20;99.90;;;;;;5016337;28;20022;-58
2022/02/11 08:29:25;;;;;;;20.90;4.05;;;4.30;99.90;;;;;;5019141;28;20056;-59
2022/02/11 08:31:55;;;;;;;22.23;3.75;;;4.30;99.90;;;;;;5020138;28;20029;-58
2022/02/11 08:34:22;;;;;;;17.70;3.03;;;4.30;99.90;;;;;;5025726;28;20053;-58
2022/02/11 08:36:47;;;;;;;13.52;3.28;;;4.30;99.90;;;;;;5021951;28;20715;-58
2022/02/11 08:39:14;;;;;;;16.27;3.08;;;4.30;99.90;;;;;;5025695;28;20025;-59
2022/02/11 08:41:40;;;;;;;24.27;3.25;;;4.40;99.90;;;;;;5023907;28;20424;-57
2022/02/11 08:44:05;;;;;;;20.45;2.60;;;4.50;99.90;;;;;;5022892;28;20029;-59
2022/02/11 08:46:31;;;;;;;18.17;2.67;;;4.50;99.90;;;;;;5019376;28;20033;-59
2022/02/11 08:48:57;;;;;;;16.10;2.83;;;4.50;99.90;;;;;;5021050;28;20036;-58
2022/02/11 08:51:23;;;;;;;13.90;3.13;;;4.40;99.90;;;;;;5025300;28;20464;-58
2022/02/11 08:53:51;;;;;;;15.85;3.13;;;4.50;99.90;;;;;;5016911;28;20025;-59
2022/02/11 08:56:17;;;;;;;10.25;3.10;;;4.60;99.90;;;;;;5022500;28;20751;-58
2022/02/11 08:58:43;;;;;;;24.58;3.88;;;4.60;99.90;;;;;;5016174;28;20021;-58
2022/02/11 09:01:09;;;;;;;13.23;3.30;;;4.60;99.90;;;;;;5000541;28;20119;-59
2022/02/11 09:03:35;;;;;;;21.08;4.68;;;4.70;99.90;;;;;;5018713;28;20029;-60
2022/02/11 09:06:03;;;;;;;14.82;3.58;;;4.80;99.90;;;;;;5014442;28;20030;-60
2022/02/11 09:08:29;;;;;;;21.63;3.85;;;4.80;99.90;;;;;;5017375;28;20815;-56
2022/02/11 09:10:55;;;;;;;25.77;4.10;;;4.80;99.90;;;;;;5019639;28;20117;-60
2022/02/11 09:13:22;;;;;;;12.38;3.25;;;4.90;99.90;;;;;;5023258;28;20025;-57
2022/02/11 09:15:48;;;;;;;15.88;3.60;;;5.00;99.90;;;;;;5015113;28;20179;-60
2022/02/11 09:18:14;;;;;;;14.15;3.35;;;5.10;99.90;;;;;;5014745;28;20116;-60
2022/02/11 09:20:40;;;;;;;15.50;4.22;;;5.30;99.90;;;;;;5022134;28;20044;-60
2022/02/11 09:23:06;;;;;;;17.33;4.15;;;5.40;99.90;;;;;;5021093;28;20047;-60
2022/02/11 09:25:33;;;;;;;15.32;2.80;;;5.40;99.90;;;;;;5018381;28;20475;-59
2022/02/11 09:27:59;;;;;;;16.27;3.28;;;5.40;99.90;;;;;;5027546;28;20040;-57
2022/02/11 09:30:26;;;;;;;28.15;4.65;;;5.30;99.90;;;;;;5017442;28;20406;-56
2022/02/11 09:32:52;;;;;;;18.10;3.42;;;5.20;99.90;;;;;;5021557;28;20115;-59
2022/02/11 09:35:19;;;;;;;17.35;2.60;;;5.10;99.90;;;;;;5019045;28;20431;-58
2022/02/11 09:37:45;;;;;;;25.00;3.95;;;5.00;99.90;;;;;;5020007;28;20025;-59
2022/02/11 09:40:13;;;;;;;23.95;4.20;;;4.90;99.90;;;;;;5017570;28;20642;-60
2022/02/11 09:42:39;;;;;;;17.98;3.10;;;5.00;99.90;;;;;;5016063;28;20014;-59
2022/02/11 09:45:07;;;;;;;24.70;3.58;;;5.00;99.90;;;;;;5014289;28;20515;-59
2022/02/11 09:47:34;;;;;;;25.75;3.45;;;5.10;99.90;;;;;;5019248;28;20384;-59
2022/02/11 09:49:59;;;;;;;18.63;4.03;;;5.20;99.90;;;;;;5026200;28;20021;-60
2022/02/11 09:52:27;;;;;;;22.30;3.85;;;5.30;99.90;;;;;;5013146;28;20045;-59
2022/02/11 09:55:31;;;;;;;23.33;5.60;;;5.20;99.90;;;;;;5026954;28;20025;-60
2022/02/11 09:57:43;;;;;;;15.23;3.65;;;5.20;99.90;;;;;;5017348;28;20033;-60
2022/02/11 10:00:10;;;;;;;18.95;3.60;;;5.10;99.90;;;;;;5020218;28;20044;-60
2022/02/11 10:02:51;;;;;;;18.20;3.45;;;5.20;99.90;;;;;;4999715;28;20038;-60
2022/02/11 10:05:27;;;;;;;20.92;3.00;;;5.30;99.90;;;;;;5016072;28;20072;-58
2022/02/11 10:07:54;;;;;;;23.40;5.75;;;5.40;99.90;;;;;;5019002;28;20034;-60
2022/02/11 10:10:38;;;;;;;19.63;3.13;;;5.50;99.90;;;;;;5019845;28;20040;-60
2022/02/11 10:13:07;;;;;;;14.73;3.50;;;5.70;99.90;;;;;;5015271;28;20022;-60
2022/02/11 10:15:36;;;;;;;14.68;3.10;;;5.70;99.90;;;;;;5013129;28;20026;-60
2022/02/11 10:18:02;;;;;;;12.02;2.97;;;5.60;99.90;;;;;;5016232;28;20087;-59
2022/02/11 10:20:29;;;;;;;18.67;3.40;;;5.70;99.90;;;;;;5016206;28;20487;-59
2022/02/11 10:23:25;;;;;;;21.75;3.53;;;5.60;99.90;;;;;;5020974;28;20037;-58
2022/02/11 10:26:15;;;;;;;13.82;2.90;;;5.70;99.90;;;;;;5015470;28;20576;-60
2022/02/11 10:28:48;;;;;;;25.00;3.90;;;5.70;99.90;;;;;;5015206;28;20061;-60
2022/02/11 10:31:25;;;;;;;15.73;3.15;;;5.80;99.90;;;;;;5022824;28;20031;-60
2022/02/11 10:34:07;;;;;;;16.83;2.72;;;5.90;99.90;;;;;;5020623;28;20040;-60
2022/02/11 10:36:39;;;;;;;20.75;3.20;;;5.90;99.90;;;;;;5023074;28;20022;-59
2022/02/11 10:39:15;;;;;;;18.02;2.80;;;5.70;99.90;;;;;;5011000;28;20034;-60
2022/02/11 10:41:52;;;;;;;18.95;3.22;;;5.70;99.90;;;;;;5014215;28;20133;-60
2022/02/11 10:44:20;;;;;;;18.25;3.67;;;5.80;99.90;;;;;;5012244;28;20026;-60
2022/02/11 10:46:48;;;;;;;13.32;3.83;;;5.80;99.90;;;;;;5020961;28;20026;-60
2022/02/11 10:49:15;;;;;;;19.48;2.60;;;5.70;99.90;;;;;;5017517;28;20033;-58
2022/02/11 10:51:49;;;;;;;19.10;5.13;;;5.60;99.90;;;;;;5022912;28;20036;-58
2022/02/11 10:54:26;;;;;;;18.40;3.20;;;5.60;99.90;;;;;;5011032;28;20118;-60
2022/02/11 10:56:59;;;;;;;20.60;2.90;;;5.50;99.90;;;;;;5015742;28;20527;-60
2022/02/11 10:59:29;;;;;;;15.05;3.17;;;5.50;99.90;;;;;;5023998;28;20121;-60
2022/02/11 11:01:56;;;;;;;22.38;4.25;;;5.40;99.90;;;;;;5001095;28;20184;-59
2022/02/11 11:04:23;;;;;;;30.05;4.03;;;5.50;99.90;;;;;;5017507;28;20025;-60
2022/02/11 11:06:49;;;;;;;20.13;2.90;;;5.50;99.90;;;;;;5022299;28;20096;-60
2022/02/11 11:09:16;;;;;;;19.15;2.80;;;5.50;99.90;;;;;;5021611;28;20092;-59
2022/02/11 11:11:44;;;;;;;20.80;4.15;;;5.40;99.90;;;;;;5014809;28;20124;-59
2022/02/11 11:14:16;;;;;;;16.60;2.95;;;5.50;99.90;;;;;;5015699;28;20491;-59
2022/02/11 11:16:43;;;;;;;17.60;3.58;;;5.50;99.90;;;;;;5018256;28;20048;-60
2022/02/11 11:19:10;;;;;;;14.80;3.15;;;5.50;99.90;;;;;;5015146;28;20033;-58
2022/02/11 11:21:43;;;;;;;19.85;3.08;;;5.50;99.90;;;;;;5024829;28;20036;-59
2022/02/11 11:24:09;;;;;;;16.63;3.53;;;5.60;99.90;;;;;;5020352;28;20030;-60
2022/02/11 11:26:37;;;;;;;17.45;3.13;;;5.70;99.90;;;;;;5020046;28;20057;-58
2022/02/11 11:29:20;;;;;;;19.25;3.13;;;5.90;99.90;;;;;;5013763;28;20017;-58
2022/02/11 11:31:56;;;;;;;15.75;2.28;;;5.90;99.90;;;;;;5021269;28;20017;-56
2022/02/11 11:34:22;;;;;;;20.70;2.50;;;5.80;99.90;;;;;;5031086;28;20113;-59
2022/02/11 11:36:50;;;;;;;17.13;2.70;;;6.10;99.90;;;;;;5032165;28;20033;-57
2022/02/11 11:39:18;;;;;;;13.43;3.05;;;6.10;99.90;;;;;;5015107;28;20022;-58
2022/02/11 11:41:57;;;;;;;17.67;2.63;;;6.00;99.90;;;;;;5014932;28;20053;-59
2022/02/11 11:44:24;;;;;;;19.15;4.47;;;5.90;99.90;;;;;;5020382;28;20034;-60
2022/02/11 11:46:52;;;;;;;15.07;5.15;;;6.10;99.90;;;;;;5013824;28;20239;-58
2022/02/11 11:49:25;;;;;;;26.80;3.00;;;6.30;99.90;;;;;;5012755;28;20029;-59
2022/02/11 11:51:50;;;;;;;18.50;3.35;;;6.40;99.90;;;;;;5023134;28;20045;-59
2022/02/11 11:54:21;;;;;;;18.92;3.85;;;6.40;99.90;;;;;;5023120;28;20029;-57
2022/02/11 11:56:55;;;;;;;14.35;2.83;;;6.30;99.90;;;;;;5018377;28;20022;-60
2022/02/11 11:59:47;;;;;;;12.95;2.75;;;6.40;99.90;;;;;;5024389;28;20021;-60
2022/02/11 12:02:20;;;;;;;9.20;2.60;;;6.50;99.90;;;;;;5007856;28;20421;-59
2022/02/11 12:04:49;;;;;;;10.93;2.17;;;6.50;99.90;;;;;;5015340;28;20030;-60
2022/02/11 12:07:16;;;;;;;21.08;3.08;;;6.80;99.90;;;;;;5019369;28;20268;-58
2022/02/11 12:09:48;;;;;;;17.65;2.53;;;7.00;99.90;;;;;;5016445;28;20510;-60
2022/02/11 12:12:15;;;;;;;15.13;3.53;;;7.10;99.90;;;;;;5022859;28;20040;-60
2022/02/11 12:14:42;;;;;;;13.82;2.65;;;6.90;99.90;;;;;;5019688;28;20144;-59
2022/02/11 12:17:10;;;;;;;19.17;2.75;;;7.00;99.60;;;;;;5018611;28;20099;-59
2022/02/11 12:19:37;;;;;;;14.82;2.17;;;6.90;99.90;;;;;;5019181;28;20030;-59
2022/02/11 12:22:06;;;;;;;14.60;2.38;;;7.00;99.90;;;;;;5023953;28;20117;-60
2022/02/11 12:27:20;;;;;;;14.90;2.40;;;6.70;99.90;;;;;;5025229;28;20040;-60
2022/02/11 12:29:54;;;;;;;21.27;3.72;;;6.60;99.90;;;;;;5024103;28;20026;-60
2022/02/11 12:32:22;;;;;;;12.25;1.63;;;6.50;99.50;;;;;;5024566;28;20041;-60
2022/02/11 12:34:49;;;;;;;13.98;2.55;;;6.60;98.70;;;;;;5028184;28;20038;-60
2022/02/11 12:37:14;;;;;;;15.73;2.38;;;6.40;97.60;;;;;;5027681;28;20029;-60
2022/02/11 12:39:40;;;;;;;8.70;2.22;;;6.20;97.40;;;;;;5021427;28;20403;-60
2022/02/11 12:42:06;;;;;;;14.13;1.98;;;5.90;99.50;;;;;;5029148;28;20032;-60
2022/02/11 12:44:33;;;;;;;15.60;2.75;;;5.80;99.40;;;;;;5027426;28;20091;-60
2022/02/11 12:47:01;;;;;;;11.30;2.80;;;5.80;99.80;;;;;;5020326;28;20648;-60
2022/02/11 12:49:27;;;;;;;13.77;1.85;;;5.80;99.90;;;;;;5017150;28;20033;-60
2022/02/11 12:51:55;;;;;;;8.75;1.98;;;6.00;99.70;;;;;;5011158;28;20033;-59
2022/02/11 12:54:21;;;;;;;10.77;1.70;;;6.10;99.90;;;;;;5023042;28;20586;-59
2022/02/11 12:56:51;;;;;;;13.93;2.60;;;6.40;99.80;;;;;;5011612;28;20024;-60
2022/02/11 12:59:17;;;;;;;14.27;2.47;;;6.50;98.70;;;;;;5013423;28;20033;-60
2022/02/11 13:01:43;;;;;;;13.85;2.83;;;6.60;98.30;;;;;;5018517;28;20018;-58
2022/02/11 13:04:19;;;;;;;13.05;2.03;;;6.60;97.40;;;;;;5029907;28;20033;-60
2022/02/11 13:06:44;;;;;;;15.27;2.92;;;6.60;97.90;;;;;;5019136;28;20085;-59
2022/02/11 13:09:11;;;;;;;8.73;1.98;;;6.70;97.00;;;;;;5024867;28;20490;-59
2022/02/11 13:11:37;;;;;;;12.05;1.77;;;6.70;97.50;;;;;;5019482;28;20037;-59
2022/02/11 13:14:06;;;;;;;13.35;2.00;;;6.70;96.30;;;;;;5019202;28;20133;-58
2022/02/11 13:16:33;;;;;;;12.32;2.75;;;6.60;97.10;;;;;;5025164;28;20499;-59
2022/02/11 13:19:16;;;;;;;12.48;1.98;;;6.40;98.50;;;;;;5017934;28;20499;-61
2022/02/11 13:21:44;;;;;;;10.87;2.17;;;6.40;97.70;;;;;;5018483;28;20033;-59
2022/02/11 13:24:10;;;;;;;12.68;1.77;;;6.50;97.50;;;;;;5024384;28;20147;-60
2022/02/11 13:26:37;;;;;;;14.18;2.63;;;6.60;96.10;;;;;;5026642;28;20021;-58
2022/02/11 13:29:11;;;;;;;13.63;2.05;;;6.80;96.30;;;;;;5024673;28;20030;-61
2022/02/11 13:31:51;;;;;;;10.07;1.80;;;7.00;96.50;;;;;;5024098;28;20022;-61
2022/02/11 13:34:17;;;;;;;10.40;1.90;;;7.00;95.40;;;;;;5023803;28;20155;-56
2022/02/11 13:36:48;;;;;;;9.85;2.50;;;7.00;94.80;;;;;;5021785;28;20101;-58
2022/02/11 13:39:32;;;;;;;8.85;1.70;;;6.90;93.30;;;;;;5015688;28;20144;-52
2022/02/11 13:42:09;;;;;;;;;;;6.60;93.70;;;;;;5015421;28;20491;-58
2022/02/11 13:44:35;;;;;;;11.35;2.08;;;6.50;93.60;;;;;;5010794;28;19917;-59
2022/02/11 13:47:01;;;;;;;13.88;2.60;;;6.30;93.40;;;;;;5016421;28;20036;-59
2022/02/11 13:49:37;;;;;;;10.38;2.20;;;6.20;93.50;;;;;;5015218;28;20078;-58
2022/02/11 13:54:56;;;;;;;20.65;2.20;;;6.20;94.90;;;;;;5018633;28;20084;-60
2022/02/11 13:57:23;;;;;;;11.55;2.47;;;6.40;94.70;;;;;;5024378;28;20094;-58
2022/02/11 13:59:48;;;;;;;10.48;2.00;;;6.40;95.20;;;;;;5018512;28;20025;-58
2022/02/11 14:02:14;;;;;;;16.42;3.05;;;6.50;95.50;;;;;;5019998;28;20128;-56
2022/02/11 14:04:39;;;;;;;12.90;2.03;;;6.40;95.40;;;;;;5022750;28;20048;-59
2022/02/11 14:07:12;;;;;;;12.35;2.60;;;6.30;94.60;;;;;;5021864;28;20026;-58
2022/02/11 14:09:39;;;;;;;15.68;2.20;;;6.10;94.10;;;;;;5020593;28;20041;-59
2022/02/11 14:12:07;;;;;;;9.57;1.90;;;6.10;94.20;;;;;;5015307;28;20449;-61
2022/02/11 14:14:34;;;;;;;9.30;2.17;;;6.10;94.30;;;;;;5018541;28;20034;-57
2022/02/11 14:17:00;;;;;;;7.60;1.77;;;6.00;93.70;;;;;;5018905;28;20037;-58
2022/02/11 14:19:27;;;;;;;11.13;1.40;;;6.00;93.30;;;;;;5013617;28;20038;-59
2022/02/11 14:21:59;;;;;;;4.15;1.38;;;6.00;93.30;;;;;;5017091;28;20022;-58
2022/02/11 14:24:26;;;;;;;12.20;1.90;;;6.10;92.50;;;;;;5018082;28;20507;-58
2022/02/11 14:26:52;;;;;;;8.13;2.15;;;6.10;92.80;;;;;;5015804;28;20032;-56
2022/02/11 14:29:19;;;;;;;12.30;1.85;;;6.20;93.50;;;;;;5021414;28;20029;-58
2022/02/11 14:31:46;;;;;;;8.52;1.88;;;6.10;92.60;;;;;;5017866;28;20033;-60
2022/02/11 14:34:13;;;;;;;12.63;2.70;;;6.10;91.90;;;;;;5016034;28;20100;-61
2022/02/11 14:36:39;;;;;;;12.73;2.13;;;6.00;93.20;;;;;;5021936;28;20036;-60
2022/02/11 14:39:06;;;;;;;14.82;1.77;;;6.00;93.20;;;;;;5005508;28;20026;-58
2022/02/11 14:41:47;;;;;;;12.07;2.50;;;6.10;94.20;;;;;;4985718;28;20152;-59
2022/02/11 14:44:17;;;;;;;9.50;2.00;;;6.00;92.80;;;;;;5039642;28;20048;-60
2022/02/11 14:46:47;;;;;;;9.52;2.03;;;6.10;92.70;;;;;;5041443;28;20053;-59
2022/02/11 14:49:13;;;;;;;7.47;2.42;;;6.20;92.30;;;;;;5034439;28;20040;-56
2022/02/11 14:51:39;;;;;;;6.47;1.80;;;6.40;93.40;;;;;;5029935;28;20017;-60
2022/02/11 14:54:10;;;;;;;15.65;2.40;;;6.30;92.70;;;;;;5035782;28;20033;-60
2022/02/11 14:56:36;;;;;;;9.85;1.60;;;6.40;93.50;;;;;;5039652;28;20063;-60
2022/02/11 14:59:01;;;;;;;7.95;2.00;;;6.40;92.40;;;;;;5036563;28;20049;-60
2022/02/11 15:01:27;;;;;;;18.85;3.97;;;6.50;94.20;;;;;;5042303;28;20029;-60
2022/02/11 15:03:52;;;;;;;11.73;2.08;;;6.60;93.90;;;;;;5034549;28;20398;-59
2022/02/11 15:06:18;;;;;;;7.85;2.22;;;6.60;92.50;;;;;;5041813;28;20052;-61
2022/02/11 15:08:45;;;;;;;13.23;2.03;;;6.60;92.50;;;;;;5043603;28;20032;-59
2022/02/11 15:11:12;;;;;;;13.98;1.95;;;6.60;93.20;;;;;;5046112;28;20028;-60
2022/02/11 15:13:38;;;;;;;11.05;2.45;;;6.60;94.20;;;;;;5036679;28;20029;-59
2022/02/11 15:16:04;;;;;;;12.65;3.00;;;6.60;93.50;;;;;;5046571;28;20104;-60
2022/02/11 15:18:29;;;;;;;9.60;1.75;;;6.60;94.00;;;;;;5039080;28;20119;-60
2022/02/11 15:20:55;;;;;;;9.63;2.83;;;6.50;94.40;;;;;;5041404;28;20029;-58
2022/02/11 15:23:24;;;;;;;8.43;2.08;;;6.40;94.70;;;;;;5048927;28;20513;-59
2022/02/11 15:25:49;;;;;;;13.07;2.53;;;6.30;94.70;;;;;;5052101;28;20083;-60
2022/02/11 15:28:16;;;;;;;7.93;2.22;;;6.30;94.10;;;;;;5042722;28;20449;-59
2022/02/11 15:30:42;;;;;;;13.98;2.05;;;6.30;93.90;;;;;;5032826;28;20034;-56
2022/02/11 15:33:08;;;;;;;7.93;1.38;;;6.20;96.60;;;;;;5034348;28;20046;-60
2022/02/11 15:35:34;;;;;;;10.80;2.13;;;6.10;95.30;;;;;;5037034;28;20040;-60
2022/02/11 15:38:01;;;;;;;20.55;2.25;;;6.10;94.80;;;;;;5042410;28;20041;-59
2022/02/11 15:40:27;;;;;;;8.50;1.75;;;6.00;94.40;;;;;;5041679;28;20026;-60
2022/02/11 15:42:54;;;;;;;9.35;2.28;;;6.00;94.60;;;;;;5039709;28;20528;-58
2022/02/11 15:45:20;;;;;;;14.20;2.00;;;6.00;96.00;;;;;;5039909;28;20044;-60
2022/02/11 15:47:46;;;;;;;11.68;1.95;;;5.90;94.70;;;;;;5037986;28;20029;-60
2022/02/11 15:50:12;;;;;;;12.88;2.22;;;5.90;94.00;;;;;;5043603;28;20033;-59
2022/02/11 15:52:37;;;;;;;8.55;1.80;;;5.90;95.00;;;;;;5042957;28;20040;-59
2022/02/11 15:55:03;;;;;;;14.02;3.00;;;5.80;95.30;;;;;;5035243;28;20030;-57
2022/02/11 15:57:29;;;;;;;11.73;2.50;;;5.70;95.30;;;;;;5032846;28;20086;-58
2022/02/11 15:59:55;;;;;;;13.45;2.42;;;5.60;95.90;;;;;;5047816;28;20120;-58
2022/02/11 16:02:21;;;;;;;10.05;2.17;;;5.60;95.40;;;;;;5043220;28;20026;-58
2022/02/11 16:04:47;;;;;;;13.55;2.20;;;5.50;95.60;;;;;;5048637;28;20540;-59
2022/02/11 16:07:13;;;;;;;5.55;2.15;;;5.40;95.80;;;;;;5040944;28;20491;-56
2022/02/11 16:09:38;;;;;;;13.02;2.15;;;5.40;95.70;;;;;;5033434;28;20036;-59
2022/02/11 16:12:05;;;;;;;17.40;2.63;;;5.40;96.60;;;;;;5041301;28;20029;-59
2022/02/11 16:14:32;;;;;;;14.18;1.90;;;5.30;97.70;;;;;;5037231;28;20080;-59
2022/02/11 16:17:00;;;;;;;11.00;1.67;;;5.20;96.70;;;;;;5039622;28;20666;-58
2022/02/11 16:19:29;;;;;;;13.35;2.28;;;5.20;96.70;;;;;;5039698;28;20068;-59
2022/02/11 16:21:55;;;;;;;15.07;2.80;;;5.20;96.60;;;;;;5042311;28;20056;-59
2022/02/11 16:24:20;;;;;;;17.17;2.70;;;5.10;97.40;;;;;;5050721;28;20044;-59
2022/02/11 16:26:47;;;;;;;8.90;1.77;;;5.10;97.20;;;;;;5038855;28;20406;-59
2022/02/11 16:29:12;;;;;;;7.90;1.80;;;5.10;96.50;;;;;;5043871;28;20041;-59
2022/02/11 16:31:38;;;;;;;10.50;2.45;;;5.00;96.80;;;;;;5034804;28;20383;-59